createdAt,value
2023-01-20T00:01:33.200Z,-1.50
2023-01-20T00:04:01.531Z,-1.40
2023-01-20T00:06:29.992Z,-1.40
2023-01-20T00:09:00.177Z,-1.40
2023-01-20T00:11:29.074Z,-1.40
2023-01-20T00:13:58.210Z,-1.40
2023-01-20T00:16:27.947Z,-1.40
2023-01-20T00:18:56.149Z,-1.30
2023-01-20T00:21:24.485Z,-1.30
2023-01-20T00:23:52.591Z,-1.30
2023-01-20T00:26:22.507Z,-1.80
2023-01-20T00:28:53.688Z,-1.30
2023-01-20T00:31:24.428Z,-1.30
2023-01-20T00:33:55.905Z,-1.30
2023-01-20T00:36:26.034Z,-1.30
2023-01-20T00:38:54.625Z,-1.30
2023-01-20T00:41:22.786Z,-1.20
2023-01-20T00:43:51.112Z,-1.20
2023-01-20T00:46:19.662Z,-1.20
2023-01-20T00:48:47.705Z,-1.20
2023-01-20T00:51:17.230Z,-1.20
2023-01-20T00:53:45.290Z,-1.20
2023-01-20T00:56:13.287Z,-1.20
2023-01-20T01:01:36.341Z,-1.10
2023-01-20T01:04:04.435Z,-1.10
2023-01-20T01:06:33.802Z,-1.10
2023-01-20T01:09:01.845Z,-1.10
2023-01-20T01:11:29.867Z,-1.10
2023-01-20T01:13:58.209Z,-1.00
2023-01-20T01:16:26.609Z,-1.00
2023-01-20T01:18:55.607Z,-1.00
2023-01-20T01:21:23.770Z,-1.00
2023-01-20T01:23:54.794Z,-1.00
2023-01-20T01:26:23.542Z,-0.90
2023-01-20T01:28:52.115Z,-1.00
2023-01-20T01:31:21.891Z,-1.00
2023-01-20T01:33:50.124Z,-1.00
2023-01-20T01:36:18.656Z,-0.90
2023-01-20T01:38:57.262Z,-0.90
2023-01-20T01:41:28.632Z,-0.90
2023-01-20T01:44:05.870Z,-0.90
2023-01-20T01:46:33.951Z,-0.90
2023-01-20T01:49:05.767Z,-0.90
2023-01-20T01:51:37.969Z,-0.90
2023-01-20T01:54:10.334Z,-0.90
2023-01-20T01:56:42.406Z,-0.90
2023-01-20T01:59:12.018Z,-0.80
2023-01-20T02:01:42.797Z,-0.80
2023-01-20T02:04:17.315Z,-0.80
2023-01-20T02:06:47.614Z,-0.70
2023-01-20T02:09:15.709Z,-0.70
2023-01-20T02:11:48.670Z,-0.70
2023-01-20T02:14:17.402Z,-0.60
2023-01-20T02:16:56.679Z,-0.60
2023-01-20T02:20:03.742Z,-0.40
2023-01-20T02:22:43.733Z,-0.60
2023-01-20T02:25:42.731Z,-0.60
2023-01-20T02:28:38.344Z,-0.50
2023-01-20T02:31:32.341Z,-0.50
2023-01-20T02:34:05.086Z,-0.50
2023-01-20T02:36:41.480Z,-0.50
2023-01-20T02:39:27.659Z,-0.50
2023-01-20T02:42:01.610Z,-0.50
2023-01-20T02:44:37.466Z,-0.60
2023-01-20T02:47:13.384Z,-0.50
2023-01-20T02:49:49.002Z,-0.60
2023-01-20T02:52:22.161Z,-0.50
2023-01-20T02:54:53.454Z,-0.50
2023-01-20T02:57:28.774Z,-0.50
2023-01-20T03:00:07.406Z,-0.50
2023-01-20T03:02:38.429Z,-0.50
2023-01-20T03:05:10.967Z,-0.50
2023-01-20T03:07:42.038Z,-0.60
2023-01-20T03:10:13.878Z,-0.60
2023-01-20T03:12:46.714Z,-0.60
2023-01-20T03:15:16.416Z,-0.60
2023-01-20T03:17:44.600Z,-0.60
2023-01-20T03:20:14.500Z,-0.60
2023-01-20T03:22:42.717Z,-0.60
2023-01-20T03:25:12.521Z,-0.60
2023-01-20T03:27:41.917Z,-0.60
2023-01-20T03:30:14.381Z,-0.60
2023-01-20T03:32:44.130Z,-0.60
2023-01-20T03:35:16.040Z,-0.50
2023-01-20T03:37:45.081Z,-0.50
2023-01-20T03:40:15.320Z,-0.50
2023-01-20T03:42:52.632Z,-0.50
2023-01-20T03:45:25.474Z,-0.50
2023-01-20T03:47:59.069Z,-0.60
2023-01-20T03:50:41.892Z,-0.60
2023-01-20T03:53:19.571Z,-0.60
2023-01-20T03:55:50.911Z,-0.60
2023-01-20T03:58:22.072Z,-0.60
2023-01-20T04:00:51.466Z,-0.60
2023-01-20T04:03:22.633Z,-0.60
2023-01-20T04:05:53.046Z,-0.60
2023-01-20T04:08:24.971Z,-0.60
2023-01-20T04:10:54.007Z,-0.50
2023-01-20T04:13:22.009Z,-0.50
2023-01-20T04:15:50.914Z,-0.50
2023-01-20T04:18:21.303Z,-0.50
2023-01-20T04:20:54.038Z,-0.50
2023-01-20T04:23:26.095Z,-0.50
2023-01-20T04:25:54.156Z,-0.50
2023-01-20T04:28:22.423Z,-0.50
2023-01-20T04:30:50.747Z,-0.50
2023-01-20T04:33:18.823Z,-0.50
2023-01-20T04:35:46.861Z,-0.50
2023-01-20T04:38:16.314Z,-0.50
2023-01-20T04:40:44.322Z,-0.50
2023-01-20T04:43:12.354Z,-0.50
2023-01-20T04:45:41.976Z,-0.50
2023-01-20T04:48:10.647Z,-0.50
2023-01-20T04:50:40.374Z,-0.50
2023-01-20T04:53:12.150Z,-0.50
2023-01-20T04:55:41.576Z,-0.50
2023-01-20T04:58:10.609Z,-0.50
2023-01-20T05:00:38.657Z,-0.40
2023-01-20T05:03:07.912Z,-0.40
2023-01-20T05:05:36.248Z,-0.40
2023-01-20T05:08:05.111Z,-0.40
2023-01-20T05:10:34.287Z,-0.40
2023-01-20T05:13:03.675Z,-0.40
2023-01-20T05:15:32.111Z,-0.40
2023-01-20T05:18:00.335Z,-0.40
2023-01-20T05:20:28.412Z,-0.40
2023-01-20T05:22:56.584Z,-0.40
2023-01-20T05:25:25.028Z,-0.40
2023-01-20T05:27:53.571Z,-0.40
2023-01-20T05:30:23.362Z,-0.40
2023-01-20T05:32:51.906Z,-0.40
2023-01-20T05:35:19.947Z,-0.40
2023-01-20T05:37:48.089Z,-0.40
2023-01-20T05:40:16.335Z,-0.40
2023-01-20T05:42:44.379Z,-0.40
2023-01-20T05:45:12.870Z,-0.40
2023-01-20T05:47:42.933Z,-0.40
2023-01-20T05:50:12.497Z,-0.40
2023-01-20T05:52:40.523Z,-0.40
2023-01-20T05:55:09.123Z,-0.40
2023-01-20T05:57:37.164Z,-0.40
2023-01-20T06:00:07.980Z,-0.30
2023-01-20T06:02:36.812Z,-0.30
2023-01-20T06:05:07.523Z,-0.30
2023-01-20T06:07:35.653Z,-0.30
2023-01-20T06:10:04.247Z,-0.30
2023-01-20T06:12:32.239Z,-0.30
2023-01-20T06:15:00.267Z,-0.30
2023-01-20T06:17:28.509Z,-0.40
2023-01-20T06:19:56.511Z,-0.30
2023-01-20T06:22:26.058Z,-0.30
2023-01-20T06:24:54.342Z,-0.30
2023-01-20T06:27:22.862Z,-0.30
2023-01-20T06:29:52.124Z,-0.30
2023-01-20T06:32:20.105Z,-0.30
2023-01-20T06:34:48.173Z,-0.30
2023-01-20T06:37:16.189Z,-0.30
2023-01-20T06:39:45.874Z,-0.30
2023-01-20T06:42:13.852Z,-0.30
2023-01-20T06:44:41.850Z,-0.30
2023-01-20T06:47:09.822Z,-0.30
2023-01-20T06:49:37.854Z,-0.30
2023-01-20T06:52:06.534Z,-0.30
2023-01-20T06:54:34.633Z,-0.30
2023-01-20T06:57:04.161Z,-0.30
2023-01-20T06:59:32.254Z,-0.30
2023-01-20T07:02:00.636Z,-0.30
2023-01-20T07:04:28.745Z,-0.30
2023-01-20T07:06:56.768Z,-0.40
2023-01-20T07:09:24.804Z,-0.40
2023-01-20T07:11:52.790Z,-0.40
2023-01-20T07:14:22.673Z,-0.30
2023-01-20T07:16:51.053Z,-0.30
2023-01-20T07:19:19.215Z,-0.40
2023-01-20T07:21:47.260Z,-0.30
2023-01-20T07:24:30.276Z,-0.30
2023-01-20T07:26:58.292Z,-0.30
2023-01-20T07:29:27.722Z,-0.30
2023-01-20T07:31:55.836Z,-0.40
2023-01-20T07:34:24.129Z,-0.40
2023-01-20T07:36:53.184Z,-0.40
2023-01-20T07:39:21.366Z,-0.40
2023-01-20T07:41:49.664Z,-0.40
2023-01-20T07:44:18.117Z,-0.30
2023-01-20T07:46:47.938Z,-0.30
2023-01-20T07:49:16.409Z,-0.30
2023-01-20T07:51:44.840Z,-0.30
2023-01-20T07:54:13.417Z,-0.30
2023-01-20T07:56:41.887Z,-0.30
2023-01-20T07:59:11.966Z,-0.30
2023-01-20T08:01:40.116Z,-0.20
2023-01-20T08:04:09.724Z,-0.20
2023-01-20T08:06:38.450Z,-0.30
2023-01-20T08:09:09.566Z,-0.30
2023-01-20T08:11:37.549Z,-0.30
2023-01-20T08:14:05.835Z,-0.30
2023-01-20T08:16:34.434Z,-0.60
2023-01-20T08:19:02.973Z,-0.20
2023-01-20T08:21:33.931Z,-0.20
2023-01-20T08:24:05.098Z,-0.20
2023-01-20T08:26:34.419Z,-0.10
2023-01-20T08:29:04.095Z,-0.10
2023-01-20T08:31:32.246Z,0.00
2023-01-20T08:34:00.314Z,0.10
2023-01-20T08:36:30.695Z,0.10
2023-01-20T08:39:02.679Z,0.20
2023-01-20T08:41:33.434Z,0.20
2023-01-20T08:44:02.632Z,0.30
2023-01-20T08:46:31.017Z,0.30
2023-01-20T08:48:59.448Z,0.40
2023-01-20T08:51:29.577Z,0.40
2023-01-20T08:54:01.047Z,0.40
2023-01-20T08:56:30.099Z,0.50
2023-01-20T08:58:58.710Z,0.50
2023-01-20T09:01:29.764Z,0.50
2023-01-20T09:04:05.734Z,0.60
2023-01-20T09:06:41.688Z,0.60
2023-01-20T09:09:11.669Z,0.60
2023-01-20T09:11:40.909Z,0.70
2023-01-20T09:14:09.407Z,0.70
2023-01-20T09:16:37.996Z,0.70
2023-01-20T09:19:05.999Z,0.80
2023-01-20T09:21:34.050Z,0.80
2023-01-20T09:24:02.248Z,0.90
2023-01-20T09:26:38.602Z,0.90
2023-01-20T09:29:12.060Z,0.90
2023-01-20T09:31:44.717Z,1.00
2023-01-20T09:34:16.294Z,1.10
2023-01-20T09:36:44.759Z,1.10
2023-01-20T09:39:32.943Z,1.10
2023-01-20T09:42:38.558Z,1.20
2023-01-20T09:45:22.707Z,1.30
2023-01-20T09:47:51.187Z,1.40
2023-01-20T09:50:47.170Z,1.40
2023-01-20T09:53:32.612Z,1.50
2023-01-20T09:56:07.030Z,1.60
2023-01-20T09:58:42.373Z,1.60
2023-01-20T10:01:18.069Z,1.60
2023-01-20T10:03:51.699Z,1.60
2023-01-20T10:06:26.331Z,1.60
2023-01-20T10:09:05.383Z,1.70
2023-01-20T10:11:38.022Z,1.80
2023-01-20T10:14:16.130Z,1.90
2023-01-20T10:16:51.133Z,2.10
2023-01-20T10:19:27.049Z,2.20
2023-01-20T10:22:03.653Z,2.40
2023-01-20T10:24:37.657Z,2.40
2023-01-20T10:27:06.520Z,2.40
2023-01-20T10:29:39.070Z,2.80
2023-01-20T10:32:12.154Z,2.50
2023-01-20T10:34:45.531Z,2.60
2023-01-20T10:37:15.723Z,2.80
2023-01-20T10:39:48.840Z,2.90
2023-01-20T10:42:18.682Z,3.00
2023-01-20T10:44:50.551Z,3.10
2023-01-20T10:47:38.794Z,3.20
2023-01-20T10:50:32.102Z,3.20
2023-01-20T10:53:13.546Z,3.40
2023-01-20T10:55:52.292Z,3.50
2023-01-20T10:58:25.253Z,3.20
2023-01-20T11:00:55.431Z,3.40
2023-01-20T11:03:24.825Z,3.50
2023-01-20T11:05:53.403Z,3.60
2023-01-20T11:08:24.136Z,3.70
2023-01-20T11:10:55.682Z,3.80
2023-01-20T11:13:23.836Z,3.90
2023-01-20T11:15:56.300Z,3.80
2023-01-20T11:18:29.649Z,4.20
2023-01-20T11:21:00.900Z,4.00
2023-01-20T11:23:36.510Z,4.00
2023-01-20T11:26:09.943Z,4.10
2023-01-20T11:28:47.761Z,4.10
2023-01-20T11:31:18.041Z,4.20
2023-01-20T11:33:57.490Z,4.20
2023-01-20T11:36:26.809Z,4.20
2023-01-20T11:38:56.667Z,4.20
2023-01-20T11:41:26.974Z,4.10
2023-01-20T11:43:57.051Z,3.90
2023-01-20T11:46:32.394Z,3.90
2023-01-20T11:49:16.687Z,3.80
2023-01-20T11:51:53.862Z,3.70
2023-01-20T11:54:24.321Z,3.60
2023-01-20T11:56:57.521Z,3.60
2023-01-20T11:59:29.157Z,3.40
2023-01-20T12:02:01.686Z,3.30
2023-01-20T12:04:52.992Z,3.30
2023-01-20T12:07:26.712Z,3.30
2023-01-20T12:09:59.234Z,3.20
2023-01-20T12:12:34.175Z,3.20
2023-01-20T12:15:06.758Z,3.30
2023-01-20T12:17:51.364Z,3.40
2023-01-20T12:20:27.502Z,3.50
2023-01-20T12:23:06.806Z,3.40
2023-01-20T12:25:43.218Z,3.20
2023-01-20T12:28:16.949Z,3.00
2023-01-20T12:30:52.152Z,3.00
2023-01-20T12:33:27.905Z,3.10
2023-01-20T12:36:41.294Z,3.10
2023-01-20T12:39:28.611Z,3.20
2023-01-20T12:42:36.301Z,3.10
2023-01-20T12:45:14.018Z,3.10
2023-01-20T12:47:58.113Z,3.10
2023-01-20T12:50:35.999Z,3.10
2023-01-20T12:53:18.686Z,3.30
2023-01-20T12:55:57.807Z,3.30
2023-01-20T12:58:46.333Z,3.40
2023-01-20T13:01:33.075Z,3.40
2023-01-20T13:04:17.604Z,3.40
2023-01-20T13:07:02.238Z,3.40
2023-01-20T13:09:42.267Z,3.40
2023-01-20T13:12:31.030Z,3.20
2023-01-20T13:15:07.197Z,3.20
2023-01-20T13:17:41.335Z,3.10
2023-01-20T13:20:19.246Z,3.00
2023-01-20T13:22:49.318Z,2.90
2023-01-20T13:25:18.980Z,3.00
2023-01-20T13:27:51.138Z,2.80
2023-01-20T13:30:43.847Z,2.70
2023-01-20T13:33:27.677Z,2.70
2023-01-20T13:35:56.982Z,2.60
2023-01-20T13:38:30.807Z,2.60
2023-01-20T13:41:03.603Z,2.50
2023-01-20T13:43:50.567Z,2.50
2023-01-20T13:46:48.143Z,2.40
2023-01-20T13:49:45.567Z,2.40
2023-01-20T13:52:13.614Z,2.30
2023-01-20T13:55:28.811Z,2.40
2023-01-20T13:57:57.063Z,2.50
2023-01-20T14:00:25.100Z,2.50
2023-01-20T14:02:53.577Z,2.40
2023-01-20T14:05:28.118Z,2.40
2023-01-20T14:07:57.228Z,2.30
2023-01-20T14:10:27.110Z,2.30
2023-01-20T14:12:55.130Z,2.30
2023-01-20T14:15:37.170Z,2.30
2023-01-20T14:18:11.461Z,2.10
2023-01-20T14:20:41.028Z,2.10
2023-01-20T14:23:35.405Z,2.00
2023-01-20T14:26:11.096Z,1.90
2023-01-20T14:28:47.508Z,1.90
2023-01-20T14:31:21.657Z,2.00
2023-01-20T14:33:54.518Z,2.00
2023-01-20T14:36:24.020Z,2.00
2023-01-20T14:38:58.367Z,2.00
2023-01-20T14:41:33.618Z,1.90
2023-01-20T14:44:03.147Z,1.90
2023-01-20T14:46:33.841Z,1.90
2023-01-20T14:49:04.047Z,1.80
2023-01-20T14:51:32.255Z,1.90
2023-01-20T14:54:29.873Z,1.90
2023-01-20T14:57:00.552Z,1.90
2023-01-20T14:59:28.655Z,1.90
2023-01-20T15:02:01.213Z,1.80
2023-01-20T15:04:37.017Z,1.70
2023-01-20T15:07:05.454Z,1.60
2023-01-20T15:09:35.720Z,1.60
2023-01-20T15:12:43.737Z,1.60
2023-01-20T15:15:18.363Z,1.60
2023-01-20T15:18:16.938Z,1.50
2023-01-20T15:20:47.846Z,1.50
2023-01-20T15:23:20.823Z,1.40
2023-01-20T15:25:49.630Z,1.40
2023-01-20T15:28:28.976Z,1.40
2023-01-20T15:30:59.629Z,1.40
2023-01-20T15:33:28.072Z,1.40
2023-01-20T15:35:58.455Z,1.40
2023-01-20T15:38:28.577Z,1.40
2023-01-20T15:40:56.683Z,1.40
2023-01-20T15:43:26.899Z,1.30
2023-01-20T15:45:54.878Z,1.20
2023-01-20T15:48:24.653Z,1.20
2023-01-20T15:50:52.716Z,1.10
2023-01-20T15:53:20.759Z,1.20
2023-01-20T15:55:50.538Z,1.10
2023-01-20T15:58:28.136Z,1.10
2023-01-20T16:00:58.196Z,1.10
2023-01-20T16:03:28.751Z,1.10
2023-01-20T16:05:57.252Z,1.10
2023-01-20T16:08:34.470Z,1.00
2023-01-20T16:11:02.464Z,1.00
2023-01-20T16:13:30.617Z,0.90
2023-01-20T16:15:58.822Z,0.80
2023-01-20T16:18:28.293Z,0.80
2023-01-20T16:20:57.042Z,0.80
2023-01-20T16:23:25.052Z,0.80
2023-01-20T16:25:53.455Z,0.80
2023-01-20T16:28:24.066Z,0.70
2023-01-20T16:30:54.287Z,0.70
2023-01-20T16:33:24.151Z,0.60
2023-01-20T16:35:55.459Z,0.60
2023-01-20T16:38:26.858Z,0.50
2023-01-20T16:41:02.588Z,0.40
2023-01-20T16:43:30.665Z,0.50
2023-01-20T16:45:58.948Z,0.50
2023-01-20T16:48:27.236Z,0.40
2023-01-20T16:50:56.968Z,0.40
2023-01-20T16:53:24.968Z,0.40
2023-01-20T16:55:53.025Z,0.40
2023-01-20T16:58:21.040Z,0.40
2023-01-20T17:00:49.435Z,0.40
2023-01-20T17:03:17.464Z,0.40
2023-01-20T17:05:45.543Z,0.30
2023-01-20T17:08:15.028Z,0.30
2023-01-20T17:10:48.568Z,0.20
2023-01-20T17:13:16.596Z,0.10
2023-01-20T17:15:44.764Z,-0.10
2023-01-20T17:18:12.999Z,-0.20
2023-01-20T17:20:41.273Z,-0.30
2023-01-20T17:23:09.254Z,-0.30
2023-01-20T17:25:38.641Z,-0.20
2023-01-20T17:28:06.912Z,-0.30
2023-01-20T17:30:34.961Z,-0.20
2023-01-20T17:33:03.002Z,-0.10
2023-01-20T17:35:31.321Z,-0.20
2023-01-20T17:37:59.303Z,-0.10
2023-01-20T17:40:27.651Z,-0.10
2023-01-20T17:42:56.988Z,-0.10
2023-01-20T17:45:25.084Z,-0.10
2023-01-20T17:47:53.563Z,0.00
2023-01-20T17:50:21.586Z,0.00
2023-01-20T17:52:49.859Z,0.10
2023-01-20T17:55:18.350Z,0.00
2023-01-20T17:57:46.510Z,0.00
2023-01-20T18:00:17.049Z,0.00
2023-01-20T18:02:45.219Z,0.00
2023-01-20T18:05:13.470Z,0.00
2023-01-20T18:07:41.674Z,0.00
2023-01-20T18:10:11.236Z,0.10
2023-01-20T18:12:39.228Z,0.00
2023-01-20T18:15:09.743Z,0.00
2023-01-20T18:17:40.637Z,0.00
2023-01-20T18:20:11.284Z,0.10
2023-01-20T18:22:39.337Z,0.10
2023-01-20T18:25:07.829Z,0.10
2023-01-20T18:27:35.907Z,0.10
2023-01-20T18:30:04.100Z,0.00
2023-01-20T18:32:32.508Z,0.00
2023-01-20T18:35:01.841Z,0.00
2023-01-20T18:37:30.100Z,0.00
2023-01-20T18:39:58.115Z,0.00
2023-01-20T18:42:26.665Z,0.00
2023-01-20T18:44:54.746Z,0.00
2023-01-20T18:47:22.800Z,0.00
2023-01-20T18:49:50.889Z,0.00
2023-01-20T18:52:20.673Z,0.00
2023-01-20T18:54:48.641Z,-0.10
2023-01-20T18:57:17.070Z,-0.10
2023-01-20T18:59:45.065Z,0.00
2023-01-20T19:02:13.412Z,0.00
2023-01-20T19:04:41.404Z,0.00
2023-01-20T19:07:09.486Z,0.00
2023-01-20T19:09:38.872Z,0.00
2023-01-20T19:12:07.834Z,0.00
2023-01-20T19:14:35.876Z,0.00
2023-01-20T19:17:03.969Z,0.00
2023-01-20T19:19:31.939Z,0.00
2023-01-20T19:22:00.413Z,-0.10
2023-01-20T19:24:29.006Z,-0.10
2023-01-20T19:27:00.276Z,-0.10
2023-01-20T19:29:29.454Z,-0.20
2023-01-20T19:31:57.830Z,-0.20
2023-01-20T19:34:26.728Z,-0.20
2023-01-20T19:36:54.788Z,-0.20
2023-01-20T19:39:22.789Z,-0.30
2023-01-20T19:41:51.044Z,-0.30
2023-01-20T19:44:20.731Z,-0.40
2023-01-20T19:46:49.262Z,-0.40
2023-01-20T19:49:17.425Z,-0.40
2023-01-20T19:51:45.785Z,-0.40
2023-01-20T19:54:14.772Z,-0.40
2023-01-20T19:56:43.209Z,-0.40
2023-01-20T19:59:12.994Z,-0.40
2023-01-20T20:01:42.575Z,-0.40
2023-01-20T20:04:12.897Z,-0.40
2023-01-20T20:06:46.988Z,-0.50
2023-01-20T20:09:19.208Z,-0.50
2023-01-20T20:11:47.639Z,-0.50
2023-01-20T20:14:17.826Z,-0.50
2023-01-20T20:16:48.110Z,-0.50
2023-01-20T20:19:18.872Z,-0.40
2023-01-20T20:21:47.507Z,-0.50
2023-01-20T20:24:16.885Z,-0.40
2023-01-20T20:26:46.122Z,-0.50
2023-01-20T20:29:15.909Z,-0.40
2023-01-20T20:31:44.191Z,-0.40
2023-01-20T20:34:15.127Z,-0.50
2023-01-20T20:36:43.152Z,-0.50
2023-01-20T20:39:15.110Z,-0.60
2023-01-20T20:41:43.507Z,-0.60
2023-01-20T20:44:12.130Z,-0.60
2023-01-20T20:46:40.293Z,-0.70
2023-01-20T20:49:09.825Z,-0.70
2023-01-20T20:51:39.223Z,-0.80
2023-01-20T20:54:09.040Z,-0.80
2023-01-20T20:56:37.160Z,-0.80
2023-01-20T20:59:05.483Z,-0.80
2023-01-20T21:01:35.113Z,-0.80
2023-01-20T21:04:04.335Z,-0.70
2023-01-20T21:06:33.980Z,-0.70
2023-01-20T21:09:03.593Z,-0.80
2023-01-20T21:11:32.404Z,-0.80
2023-01-20T21:14:00.997Z,-0.90
2023-01-20T21:16:29.183Z,-1.00
2023-01-20T21:18:59.178Z,-0.80
2023-01-20T21:21:28.660Z,-1.10
2023-01-20T21:23:58.951Z,-1.10
2023-01-20T21:26:30.622Z,-1.20
2023-01-20T21:29:01.509Z,-1.30
2023-01-20T21:31:31.039Z,-1.30
2023-01-20T21:34:00.868Z,-1.40
2023-01-20T21:36:30.131Z,-1.50
2023-01-20T21:38:59.208Z,-1.60
2023-01-20T21:41:28.725Z,-1.70
2023-01-20T21:44:14.230Z,-1.70
2023-01-20T21:46:42.257Z,-1.70
2023-01-20T21:49:27.686Z,-1.70
2023-01-20T21:52:13.534Z,-1.70
2023-01-20T21:54:41.758Z,-1.70
2023-01-20T21:57:11.291Z,-1.70
2023-01-20T21:59:39.706Z,-1.70
2023-01-20T22:02:08.616Z,-1.70
2023-01-20T22:04:36.649Z,-1.80
2023-01-20T22:07:04.615Z,-1.80
2023-01-20T22:09:33.725Z,-1.80
2023-01-20T22:12:01.746Z,-1.80
2023-01-20T22:14:32.242Z,-1.80
2023-01-20T22:17:00.539Z,-1.80
2023-01-20T22:19:28.606Z,-1.70
2023-01-20T22:21:57.444Z,-1.70
2023-01-20T22:24:25.465Z,-1.70
2023-01-20T22:26:54.118Z,-1.60
2023-01-20T22:29:22.717Z,-1.70
2023-01-20T22:31:53.884Z,-1.70
2023-01-20T22:34:22.577Z,-1.70
2023-01-20T22:36:50.619Z,-1.70
2023-01-20T22:39:18.718Z,-1.70
2023-01-20T22:41:46.772Z,-1.70
2023-01-20T22:44:15.077Z,-1.70
2023-01-20T22:46:43.503Z,-1.70
2023-01-20T22:49:13.520Z,-1.80
2023-01-20T22:51:41.532Z,-1.80
2023-01-20T22:54:11.049Z,-1.80
2023-01-20T22:56:39.975Z,-1.80
2023-01-20T22:59:08.047Z,-1.90
2023-01-20T23:01:37.642Z,-1.90
2023-01-20T23:04:07.312Z,-1.90
2023-01-20T23:06:37.948Z,-2.00
2023-01-20T23:09:08.599Z,-2.00
2023-01-20T23:11:38.161Z,-2.10
2023-01-20T23:14:06.704Z,-2.10
2023-01-20T23:16:35.210Z,-2.20
2023-01-20T23:19:03.503Z,-2.20
2023-01-20T23:21:31.808Z,-2.30
2023-01-20T23:24:01.285Z,-2.20
2023-01-20T23:26:31.433Z,-2.20
2023-01-20T23:29:00.458Z,-2.20
2023-01-20T23:31:33.105Z,-2.20
2023-01-20T23:34:01.362Z,-2.20
2023-01-20T23:36:29.493Z,-2.30
2023-01-20T23:38:57.979Z,-2.30
2023-01-20T23:41:27.878Z,-2.40
2023-01-20T23:43:55.924Z,-2.50
2023-01-20T23:46:24.289Z,-2.70
2023-01-20T23:48:52.260Z,-3.00
2023-01-20T23:51:20.314Z,-3.20
2023-01-20T23:53:48.356Z,-3.40
2023-01-20T23:56:18.359Z,-3.60
2023-01-20T23:58:48.330Z,-3.60
